Glendale, Indiana
Current Conditions -  °F | °C
As of 6:55 AM on Friday 31 Oct 2014 (Local Time) from KDCY Reporting Station
Overcast Overcast  
Wind Chill: 41°   Ceiling: 8000
Heat Index: 45°   Visibility: 10mi
Dew Point: 45°   Wind: 7mph
Humidity: 98%   Direction: 300°WNW
Pressure: 30.03"   Gusts: NA
Location:  38.6251°N, 87.0452°W
Report Text: KDCY 311155Z AUTO 30006KT 10SM SCT042 BKN080 OVC120 07/07 A3003 RMK AO2 60005 70006 T00730070 10080 20071
Loading
Personal Weather Stations






























Interactive Weather Map
Tropical Storm Tracking
New forecast layout! Learn more

10-Day Weather Forecast

Advertisements
Track Severe Weather on mobile